sensor_id;sensor_type;location;lat;lon;timestamp;P1;P2;P0
60816;PMS5003;51921;51.518;-3.188;2023-06-14T00:00:23;19;18;
60816;PMS5003;51921;51.518;-3.188;2023-06-14T00:02:48;25;24;
60816;PMS5003;51921;51.518;-3.188;2023-06-14T00:05:14;21;21;
60816;PMS5003;51921;51.518;-3.188;2023-06-14T00:07:41;22;21;
60816;PMS5003;51921;51.518;-3.188;2023-06-14T00:10:04;25;23;
60816;PMS5003;51921;51.518;-3.188;2023-06-14T00:12:30;22;20;
60816;PMS5003;51921;51.518;-3.188;2023-06-14T00:14:55;21;21;
60816;PMS5003;51921;51.518;-3.188;2023-06-14T00:17:21;22;22;
60816;PMS5003;51921;51.518;-3.188;2023-06-14T00:19:46;23;23;
60816;PMS5003;51921;51.518;-3.188;2023-06-14T00:22:11;24;24;
60816;PMS5003;51921;51.518;-3.188;2023-06-14T00:24:37;23;23;
60816;PMS5003;51921;51.518;-3.188;2023-06-14T00:27:03;26;26;
60816;PMS5003;51921;51.518;-3.188;2023-06-14T00:29:28;21;21;
60816;PMS5003;51921;51.518;-3.188;2023-06-14T00:31:54;22;21;
60816;PMS5003;51921;51.518;-3.188;2023-06-14T00:34:19;23;23;
60816;PMS5003;51921;51.518;-3.188;2023-06-14T00:36:44;22;22;
60816;PMS5003;51921;51.518;-3.188;2023-06-14T00:39:09;22;21;
60816;PMS5003;51921;51.518;-3.188;2023-06-14T00:41:35;26;23;
60816;PMS5003;51921;51.518;-3.188;2023-06-14T00:44:00;21;20;
60816;PMS5003;51921;51.518;-3.188;2023-06-14T00:46:25;21;20;
60816;PMS5003;51921;51.518;-3.188;2023-06-14T00:48:51;27;26;
60816;PMS5003;51921;51.518;-3.188;2023-06-14T00:51:16;21;20;
60816;PMS5003;51921;51.518;-3.188;2023-06-14T00:53:42;22;21;
60816;PMS5003;51921;51.518;-3.188;2023-06-14T00:56:07;23;23;
60816;PMS5003;51921;51.518;-3.188;2023-06-14T00:58:32;23;23;
60816;PMS5003;51921;51.518;-3.188;2023-06-14T01:00:58;21;20;
60816;PMS5003;51921;51.518;-3.188;2023-06-14T01:03:23;22;21;
60816;PMS5003;51921;51.518;-3.188;2023-06-14T01:05:48;21;19;
60816;PMS5003;51921;51.518;-3.188;2023-06-14T01:08:17;20;20;
60816;PMS5003;51921;51.518;-3.188;2023-06-14T01:10:41;23;21;
60816;PMS5003;51921;51.518;-3.188;2023-06-14T01:13:07;20;19;
60816;PMS5003;51921;51.518;-3.188;2023-06-14T01:15:29;19;19;
60816;PMS5003;51921;51.518;-3.188;2023-06-14T01:17:55;19;19;
60816;PMS5003;51921;51.518;-3.188;2023-06-14T01:20:20;20;19;
60816;PMS5003;51921;51.518;-3.188;2023-06-14T01:22:50;22;20;
60816;PMS5003;51921;51.518;-3.188;2023-06-14T01:25:11;19;18;
60816;PMS5003;51921;51.518;-3.188;2023-06-14T01:27:36;19;18;
60816;PMS5003;51921;51.518;-3.188;2023-06-14T01:30:02;21;20;
60816;PMS5003;51921;51.518;-3.188;2023-06-14T01:32:27;20;19;
60816;PMS5003;51921;51.518;-3.188;2023-06-14T01:34:52;21;20;
60816;PMS5003;51921;51.518;-3.188;2023-06-14T01:37:18;19;19;
60816;PMS5003;51921;51.518;-3.188;2023-06-14T01:39:43;23;20;
60816;PMS5003;51921;51.518;-3.188;2023-06-14T01:42:09;22;21;
60816;PMS5003;51921;51.518;-3.188;2023-06-14T01:44:34;21;19;
60816;PMS5003;51921;51.518;-3.188;2023-06-14T01:47:00;23;22;
60816;PMS5003;51921;51.518;-3.188;2023-06-14T01:49:25;17;17;
60816;PMS5003;51921;51.518;-3.188;2023-06-14T01:51:51;21;20;
60816;PMS5003;51921;51.518;-3.188;2023-06-14T01:54:16;19;19;
60816;PMS5003;51921;51.518;-3.188;2023-06-14T01:56:41;23;20;
60816;PMS5003;51921;51.518;-3.188;2023-06-14T01:59:06;20;19;
60816;PMS5003;51921;51.518;-3.188;2023-06-14T02:01:31;19;19;
60816;PMS5003;51921;51.518;-3.188;2023-06-14T02:03:56;19;18;
60816;PMS5003;51921;51.518;-3.188;2023-06-14T02:06:22;20;19;
60816;PMS5003;51921;51.518;-3.188;2023-06-14T02:08:47;21;20;
60816;PMS5003;51921;51.518;-3.188;2023-06-14T02:11:12;21;20;
60816;PMS5003;51921;51.518;-3.188;2023-06-14T02:13:38;23;20;
60816;PMS5003;51921;51.518;-3.188;2023-06-14T02:16:03;18;17;
60816;PMS5003;51921;51.518;-3.188;2023-06-14T02:18:28;20;20;
60816;PMS5003;51921;51.518;-3.188;2023-06-14T02:20:54;18;18;
60816;PMS5003;51921;51.518;-3.188;2023-06-14T02:23:19;21;20;
60816;PMS5003;51921;51.518;-3.188;2023-06-14T02:25:44;21;20;
60816;PMS5003;51921;51.518;-3.188;2023-06-14T02:28:09;22;22;
60816;PMS5003;51921;51.518;-3.188;2023-06-14T02:30:35;19;18;
60816;PMS5003;51921;51.518;-3.188;2023-06-14T02:33:00;22;22;
60816;PMS5003;51921;51.518;-3.188;2023-06-14T02:35:25;21;21;
60816;PMS5003;51921;51.518;-3.188;2023-06-14T02:37:51;21;21;
60816;PMS5003;51921;51.518;-3.188;2023-06-14T02:40:16;19;18;
60816;PMS5003;51921;51.518;-3.188;2023-06-14T02:42:41;21;20;
60816;PMS5003;51921;51.518;-3.188;2023-06-14T02:45:07;19;19;
60816;PMS5003;51921;51.518;-3.188;2023-06-14T02:47:32;21;20;
60816;PMS5003;51921;51.518;-3.188;2023-06-14T02:49:58;27;25;
60816;PMS5003;51921;51.518;-3.188;2023-06-14T02:52:24;20;20;
60816;PMS5003;51921;51.518;-3.188;2023-06-14T02:54:49;18;18;
60816;PMS5003;51921;51.518;-3.188;2023-06-14T02:57:14;18;18;
60816;PMS5003;51921;51.518;-3.188;2023-06-14T02:59:40;22;20;
60816;PMS5003;51921;51.518;-3.188;2023-06-14T03:02:05;18;18;
60816;PMS5003;51921;51.518;-3.188;2023-06-14T03:04:30;18;17;
60816;PMS5003;51921;51.518;-3.188;2023-06-14T03:06:55;21;20;
60816;PMS5003;51921;51.518;-3.188;2023-06-14T03:09:21;19;18;
60816;PMS5003;51921;51.518;-3.188;2023-06-14T03:11:45;18;17;
60816;PMS5003;51921;51.518;-3.188;2023-06-14T03:14:11;15;14;
60816;PMS5003;51921;51.518;-3.188;2023-06-14T03:16:36;18;18;
60816;PMS5003;51921;51.518;-3.188;2023-06-14T03:19:02;22;22;
60816;PMS5003;51921;51.518;-3.188;2023-06-14T03:21:27;16;16;
60816;PMS5003;51921;51.518;-3.188;2023-06-14T03:23:53;20;19;
60816;PMS5003;51921;51.518;-3.188;2023-06-14T03:26:18;20;20;
60816;PMS5003;51921;51.518;-3.188;2023-06-14T03:28:43;16;16;
60816;PMS5003;51921;51.518;-3.188;2023-06-14T03:31:09;20;18;
60816;PMS5003;51921;51.518;-3.188;2023-06-14T03:33:34;18;17;
60816;PMS5003;51921;51.518;-3.188;2023-06-14T03:36:00;17;17;
60816;PMS5003;51921;51.518;-3.188;2023-06-14T03:38:25;19;18;
60816;PMS5003;51921;51.518;-3.188;2023-06-14T03:40:50;17;17;
60816;PMS5003;51921;51.518;-3.188;2023-06-14T03:43:16;17;16;
60816;PMS5003;51921;51.518;-3.188;2023-06-14T03:45:41;17;17;
60816;PMS5003;51921;51.518;-3.188;2023-06-14T03:48:06;18;17;
60816;PMS5003;51921;51.518;-3.188;2023-06-14T03:50:31;17;16;
60816;PMS5003;51921;51.518;-3.188;2023-06-14T03:52:57;17;16;
60816;PMS5003;51921;51.518;-3.188;2023-06-14T03:55:22;15;15;
60816;PMS5003;51921;51.518;-3.188;2023-06-14T03:57:48;16;16;
60816;PMS5003;51921;51.518;-3.188;2023-06-14T04:00:14;13;13;
60816;PMS5003;51921;51.518;-3.188;2023-06-14T04:02:39;15;13;
60816;PMS5003;51921;51.518;-3.188;2023-06-14T04:05:04;15;15;
60816;PMS5003;51921;51.518;-3.188;2023-06-14T04:07:29;16;15;
60816;PMS5003;51921;51.518;-3.188;2023-06-14T04:09:55;13;13;
60816;PMS5003;51921;51.518;-3.188;2023-06-14T04:12:20;13;12;
60816;PMS5003;51921;51.518;-3.188;2023-06-14T04:14:46;12;12;
60816;PMS5003;51921;51.518;-3.188;2023-06-14T04:17:11;13;13;
60816;PMS5003;51921;51.518;-3.188;2023-06-14T04:19:37;15;13;
60816;PMS5003;51921;51.518;-3.188;2023-06-14T04:22:03;13;13;
60816;PMS5003;51921;51.518;-3.188;2023-06-14T04:24:28;12;11;
60816;PMS5003;51921;51.518;-3.188;2023-06-14T04:26:53;15;15;
60816;PMS5003;51921;51.518;-3.188;2023-06-14T04:29:19;13;12;
60816;PMS5003;51921;51.518;-3.188;2023-06-14T04:31:45;17;16;
60816;PMS5003;51921;51.518;-3.188;2023-06-14T04:34:10;13;13;
60816;PMS5003;51921;51.518;-3.188;2023-06-14T04:36:35;13;12;
60816;PMS5003;51921;51.518;-3.188;2023-06-14T04:39:01;12;12;
60816;PMS5003;51921;51.518;-3.188;2023-06-14T04:41:26;12;12;
60816;PMS5003;51921;51.518;-3.188;2023-06-14T04:43:52;11;9;
60816;PMS5003;51921;51.518;-3.188;2023-06-14T04:46:17;12;11;
60816;PMS5003;51921;51.518;-3.188;2023-06-14T04:48:43;11;10;
60816;PMS5003;51921;51.518;-3.188;2023-06-14T04:51:08;11;11;
60816;PMS5003;51921;51.518;-3.188;2023-06-14T04:53:34;10;10;
60816;PMS5003;51921;51.518;-3.188;2023-06-14T04:55:59;9;9;
60816;PMS5003;51921;51.518;-3.188;2023-06-14T04:58:25;11;11;
60816;PMS5003;51921;51.518;-3.188;2023-06-14T05:00:50;11;10;
60816;PMS5003;51921;51.518;-3.188;2023-06-14T05:03:15;9;9;
60816;PMS5003;51921;51.518;-3.188;2023-06-14T05:05:41;8;8;
60816;PMS5003;51921;51.518;-3.188;2023-06-14T05:08:06;10;10;
60816;PMS5003;51921;51.518;-3.188;2023-06-14T05:10:31;8;8;
60816;PMS5003;51921;51.518;-3.188;2023-06-14T05:12:57;10;9;
60816;PMS5003;51921;51.518;-3.188;2023-06-14T05:15:22;9;9;
60816;PMS5003;51921;51.518;-3.188;2023-06-14T05:17:48;12;10;
60816;PMS5003;51921;51.518;-3.188;2023-06-14T05:20:13;8;7;
60816;PMS5003;51921;51.518;-3.188;2023-06-14T05:22:39;9;9;
60816;PMS5003;51921;51.518;-3.188;2023-06-14T05:25:05;9;9;
60816;PMS5003;51921;51.518;-3.188;2023-06-14T05:27:30;9;9;
60816;PMS5003;51921;51.518;-3.188;2023-06-14T05:29:55;11;10;
60816;PMS5003;51921;51.518;-3.188;2023-06-14T05:32:21;10;10;
60816;PMS5003;51921;51.518;-3.188;2023-06-14T05:34:46;11;11;
60816;PMS5003;51921;51.518;-3.188;2023-06-14T05:37:12;10;10;
60816;PMS5003;51921;51.518;-3.188;2023-06-14T05:39:37;11;10;
60816;PMS5003;51921;51.518;-3.188;2023-06-14T05:42:03;13;12;
60816;PMS5003;51921;51.518;-3.188;2023-06-14T05:44:28;11;11;
60816;PMS5003;51921;51.518;-3.188;2023-06-14T05:46:54;11;11;
60816;PMS5003;51921;51.518;-3.188;2023-06-14T05:49:19;8;8;
60816;PMS5003;51921;51.518;-3.188;2023-06-14T05:51:44;11;11;
60816;PMS5003;51921;51.518;-3.188;2023-06-14T05:54:10;11;11;
60816;PMS5003;51921;51.518;-3.188;2023-06-14T05:56:35;10;10;
60816;PMS5003;51921;51.518;-3.188;2023-06-14T05:59:01;7;7;
60816;PMS5003;51921;51.518;-3.188;2023-06-14T06:01:26;11;9;
60816;PMS5003;51921;51.518;-3.188;2023-06-14T06:03:52;12;10;
60816;PMS5003;51921;51.518;-3.188;2023-06-14T06:06:17;11;10;
60816;PMS5003;51921;51.518;-3.188;2023-06-14T06:08:43;12;12;
60816;PMS5003;51921;51.518;-3.188;2023-06-14T06:11:08;11;10;
60816;PMS5003;51921;51.518;-3.188;2023-06-14T06:13:34;10;10;
60816;PMS5003;51921;51.518;-3.188;2023-06-14T06:15:59;10;8;
60816;PMS5003;51921;51.518;-3.188;2023-06-14T06:18:24;9;9;
60816;PMS5003;51921;51.518;-3.188;2023-06-14T06:20:50;11;10;
60816;PMS5003;51921;51.518;-3.188;2023-06-14T06:23:15;8;7;
60816;PMS5003;51921;51.518;-3.188;2023-06-14T06:25:42;10;10;
60816;PMS5003;51921;51.518;-3.188;2023-06-14T06:28:06;9;9;
60816;PMS5003;51921;51.518;-3.188;2023-06-14T06:30:32;7;7;
60816;PMS5003;51921;51.518;-3.188;2023-06-14T06:32:57;9;9;
60816;PMS5003;51921;51.518;-3.188;2023-06-14T06:35:23;10;10;
60816;PMS5003;51921;51.518;-3.188;2023-06-14T06:37:48;8;8;
60816;PMS5003;51921;51.518;-3.188;2023-06-14T06:40:14;10;9;
60816;PMS5003;51921;51.518;-3.188;2023-06-14T06:42:39;8;8;
60816;PMS5003;51921;51.518;-3.188;2023-06-14T06:45:05;9;8;
60816;PMS5003;51921;51.518;-3.188;2023-06-14T06:47:30;10;9;
60816;PMS5003;51921;51.518;-3.188;2023-06-14T06:49:56;6;6;
60816;PMS5003;51921;51.518;-3.188;2023-06-14T06:52:21;9;8;
60816;PMS5003;51921;51.518;-3.188;2023-06-14T06:54:47;8;8;
60816;PMS5003;51921;51.518;-3.188;2023-06-14T06:57:12;10;10;
60816;PMS5003;51921;51.518;-3.188;2023-06-14T06:59:38;9;9;
60816;PMS5003;51921;51.518;-3.188;2023-06-14T07:02:03;9;9;
60816;PMS5003;51921;51.518;-3.188;2023-06-14T07:04:29;8;8;
60816;PMS5003;51921;51.518;-3.188;2023-06-14T07:06:54;8;8;
60816;PMS5003;51921;51.518;-3.188;2023-06-14T07:09:19;8;8;
60816;PMS5003;51921;51.518;-3.188;2023-06-14T07:11:45;10;10;
60816;PMS5003;51921;51.518;-3.188;2023-06-14T07:14:10;8;8;
60816;PMS5003;51921;51.518;-3.188;2023-06-14T07:16:36;10;9;
60816;PMS5003;51921;51.518;-3.188;2023-06-14T07:19:01;9;8;
60816;PMS5003;51921;51.518;-3.188;2023-06-14T07:21:27;10;10;
60816;PMS5003;51921;51.518;-3.188;2023-06-14T07:23:52;9;8;
60816;PMS5003;51921;51.518;-3.188;2023-06-14T07:26:18;9;7;
60816;PMS5003;51921;51.518;-3.188;2023-06-14T07:28:43;9;9;
60816;PMS5003;51921;51.518;-3.188;2023-06-14T07:31:08;9;9;
60816;PMS5003;51921;51.518;-3.188;2023-06-14T07:33:34;8;7;
60816;PMS5003;51921;51.518;-3.188;2023-06-14T07:35:59;7;7;
60816;PMS5003;51921;51.518;-3.188;2023-06-14T07:38:25;7;7;
60816;PMS5003;51921;51.518;-3.188;2023-06-14T07:40:50;9;9;
60816;PMS5003;51921;51.518;-3.188;2023-06-14T07:43:15;7;7;
60816;PMS5003;51921;51.518;-3.188;2023-06-14T07:45:41;9;9;
60816;PMS5003;51921;51.518;-3.188;2023-06-14T07:48:06;8;8;
60816;PMS5003;51921;51.518;-3.188;2023-06-14T07:50:31;10;10;
60816;PMS5003;51921;51.518;-3.188;2023-06-14T07:52:57;10;10;
60816;PMS5003;51921;51.518;-3.188;2023-06-14T07:55:22;9;9;
60816;PMS5003;51921;51.518;-3.188;2023-06-14T07:57:47;10;10;
60816;PMS5003;51921;51.518;-3.188;2023-06-14T08:00:13;9;9;
60816;PMS5003;51921;51.518;-3.188;2023-06-14T08:02:38;9;9;
60816;PMS5003;51921;51.518;-3.188;2023-06-14T08:05:04;10;9;
60816;PMS5003;51921;51.518;-3.188;2023-06-14T08:07:29;10;9;
60816;PMS5003;51921;51.518;-3.188;2023-06-14T08:09:54;9;8;
60816;PMS5003;51921;51.518;-3.188;2023-06-14T08:12:20;8;7;
60816;PMS5003;51921;51.518;-3.188;2023-06-14T08:14:45;11;11;
60816;PMS5003;51921;51.518;-3.188;2023-06-14T08:17:11;10;9;
60816;PMS5003;51921;51.518;-3.188;2023-06-14T08:19:36;8;8;
60816;PMS5003;51921;51.518;-3.188;2023-06-14T08:22:01;8;8;
60816;PMS5003;51921;51.518;-3.188;2023-06-14T08:24:27;7;7;
60816;PMS5003;51921;51.518;-3.188;2023-06-14T08:26:52;7;7;
60816;PMS5003;51921;51.518;-3.188;2023-06-14T08:29:17;8;8;
60816;PMS5003;51921;51.518;-3.188;2023-06-14T08:31:43;10;10;
60816;PMS5003;51921;51.518;-3.188;2023-06-14T08:34:08;9;8;
60816;PMS5003;51921;51.518;-3.188;2023-06-14T08:36:34;8;8;
60816;PMS5003;51921;51.518;-3.188;2023-06-14T08:38:59;8;8;
60816;PMS5003;51921;51.518;-3.188;2023-06-14T08:41:24;9;8;
60816;PMS5003;51921;51.518;-3.188;2023-06-14T08:43:50;7;7;
60816;PMS5003;51921;51.518;-3.188;2023-06-14T08:46:15;9;9;
60816;PMS5003;51921;51.518;-3.188;2023-06-14T08:48:40;8;8;
60816;PMS5003;51921;51.518;-3.188;2023-06-14T08:51:06;7;7;
60816;PMS5003;51921;51.518;-3.188;2023-06-14T08:53:31;7;7;
60816;PMS5003;51921;51.518;-3.188;2023-06-14T08:55:56;11;11;
60816;PMS5003;51921;51.518;-3.188;2023-06-14T08:58:22;8;8;
60816;PMS5003;51921;51.518;-3.188;2023-06-14T09:00:47;7;7;
60816;PMS5003;51921;51.518;-3.188;2023-06-14T09:03:12;9;8;
60816;PMS5003;51921;51.518;-3.188;2023-06-14T09:05:38;7;7;
60816;PMS5003;51921;51.518;-3.188;2023-06-14T09:08:03;7;7;
60816;PMS5003;51921;51.518;-3.188;2023-06-14T09:10:28;7;7;
60816;PMS5003;51921;51.518;-3.188;2023-06-14T09:12:53;9;8;
60816;PMS5003;51921;51.518;-3.188;2023-06-14T09:15:19;7;7;
60816;PMS5003;51921;51.518;-3.188;2023-06-14T09:17:44;7;7;
60816;PMS5003;51921;51.518;-3.188;2023-06-14T09:20:10;8;7;
60816;PMS5003;51921;51.518;-3.188;2023-06-14T09:22:35;10;10;
60816;PMS5003;51921;51.518;-3.188;2023-06-14T09:25:00;7;7;
60816;PMS5003;51921;51.518;-3.188;2023-06-14T09:27:26;10;10;
60816;PMS5003;51921;51.518;-3.188;2023-06-14T09:29:51;9;8;
60816;PMS5003;51921;51.518;-3.188;2023-06-14T09:32:16;6;6;
60816;PMS5003;51921;51.518;-3.188;2023-06-14T09:34:42;8;7;
60816;PMS5003;51921;51.518;-3.188;2023-06-14T09:37:07;9;9;
60816;PMS5003;51921;51.518;-3.188;2023-06-14T09:39:32;9;8;
60816;PMS5003;51921;51.518;-3.188;2023-06-14T09:41:58;6;6;
60816;PMS5003;51921;51.518;-3.188;2023-06-14T09:44:23;10;10;
60816;PMS5003;51921;51.518;-3.188;2023-06-14T09:46:48;9;8;
60816;PMS5003;51921;51.518;-3.188;2023-06-14T09:49:13;7;7;
60816;PMS5003;51921;51.518;-3.188;2023-06-14T09:51:42;9;9;
60816;PMS5003;51921;51.518;-3.188;2023-06-14T09:54:04;9;8;
60816;PMS5003;51921;51.518;-3.188;2023-06-14T09:56:30;9;8;
60816;PMS5003;51921;51.518;-3.188;2023-06-14T09:58:55;7;7;
60816;PMS5003;51921;51.518;-3.188;2023-06-14T10:01:20;7;7;
60816;PMS5003;51921;51.518;-3.188;2023-06-14T10:03:45;8;8;
60816;PMS5003;51921;51.518;-3.188;2023-06-14T10:06:11;9;9;
60816;PMS5003;51921;51.518;-3.188;2023-06-14T10:08:36;9;9;
60816;PMS5003;51921;51.518;-3.188;2023-06-14T10:11:01;9;8;
60816;PMS5003;51921;51.518;-3.188;2023-06-14T10:13:27;9;9;
60816;PMS5003;51921;51.518;-3.188;2023-06-14T10:15:54;9;8;
60816;PMS5003;51921;51.518;-3.188;2023-06-14T10:18:19;11;10;
60816;PMS5003;51921;51.518;-3.188;2023-06-14T10:20:44;9;9;
60816;PMS5003;51921;51.518;-3.188;2023-06-14T10:23:10;10;10;
60816;PMS5003;51921;51.518;-3.188;2023-06-14T10:25:34;8;7;
60816;PMS5003;51921;51.518;-3.188;2023-06-14T10:28:02;10;9;
60816;PMS5003;51921;51.518;-3.188;2023-06-14T10:30:25;10;10;
60816;PMS5003;51921;51.518;-3.188;2023-06-14T10:35:16;8;8;
60816;PMS5003;51921;51.518;-3.188;2023-06-14T10:37:40;8;8;
60816;PMS5003;51921;51.518;-3.188;2023-06-14T10:40:06;8;8;
60816;PMS5003;51921;51.518;-3.188;2023-06-14T10:42:31;10;9;
60816;PMS5003;51921;51.518;-3.188;2023-06-14T10:44:57;10;10;
60816;PMS5003;51921;51.518;-3.188;2023-06-14T10:47:23;9;9;
60816;PMS5003;51921;51.518;-3.188;2023-06-14T10:49:49;9;9;
60816;PMS5003;51921;51.518;-3.188;2023-06-14T10:52:13;9;8;
60816;PMS5003;51921;51.518;-3.188;2023-06-14T10:54:38;9;9;
60816;PMS5003;51921;51.518;-3.188;2023-06-14T10:57:03;7;7;
60816;PMS5003;51921;51.518;-3.188;2023-06-14T10:59:28;8;8;
60816;PMS5003;51921;51.518;-3.188;2023-06-14T11:01:55;11;10;
60816;PMS5003;51921;51.518;-3.188;2023-06-14T11:04:20;9;9;
60816;PMS5003;51921;51.518;-3.188;2023-06-14T11:06:46;7;6;
60816;PMS5003;51921;51.518;-3.188;2023-06-14T11:09:14;9;9;
60816;PMS5003;51921;51.518;-3.188;2023-06-14T11:11:36;8;8;
60816;PMS5003;51921;51.518;-3.188;2023-06-14T11:14:02;7;7;
60816;PMS5003;51921;51.518;-3.188;2023-06-14T11:16:27;8;8;
60816;PMS5003;51921;51.518;-3.188;2023-06-14T11:18:52;10;9;
60816;PMS5003;51921;51.518;-3.188;2023-06-14T11:21:18;9;7;
60816;PMS5003;51921;51.518;-3.188;2023-06-14T11:26:08;8;8;
60816;PMS5003;51921;51.518;-3.188;2023-06-14T11:28:35;10;8;
60816;PMS5003;51921;51.518;-3.188;2023-06-14T11:31:00;9;9;
60816;PMS5003;51921;51.518;-3.188;2023-06-14T11:33:24;10;10;
60816;PMS5003;51921;51.518;-3.188;2023-06-14T11:35:49;9;9;
60816;PMS5003;51921;51.518;-3.188;2023-06-14T11:38:15;8;7;
60816;PMS5003;51921;51.518;-3.188;2023-06-14T11:40:40;7;7;
60816;PMS5003;51921;51.518;-3.188;2023-06-14T11:43:06;7;7;
60816;PMS5003;51921;51.518;-3.188;2023-06-14T11:45:31;7;6;
60816;PMS5003;51921;51.518;-3.188;2023-06-14T11:47:58;10;8;
60816;PMS5003;51921;51.518;-3.188;2023-06-14T11:50:23;7;7;
60816;PMS5003;51921;51.518;-3.188;2023-06-14T11:52:52;7;7;
60816;PMS5003;51921;51.518;-3.188;2023-06-14T11:55:13;8;8;
60816;PMS5003;51921;51.518;-3.188;2023-06-14T11:57:39;10;9;
60816;PMS5003;51921;51.518;-3.188;2023-06-14T12:00:05;9;8;
60816;PMS5003;51921;51.518;-3.188;2023-06-14T12:02:31;9;9;
60816;PMS5003;51921;51.518;-3.188;2023-06-14T12:04:55;7;7;
60816;PMS5003;51921;51.518;-3.188;2023-06-14T12:07:20;7;6;
60816;PMS5003;51921;51.518;-3.188;2023-06-14T12:12:12;8;7;
60816;PMS5003;51921;51.518;-3.188;2023-06-14T12:14:37;10;9;
60816;PMS5003;51921;51.518;-3.188;2023-06-14T12:17:04;9;9;
60816;PMS5003;51921;51.518;-3.188;2023-06-14T12:19:27;10;10;
60816;PMS5003;51921;51.518;-3.188;2023-06-14T12:21:53;8;8;
60816;PMS5003;51921;51.518;-3.188;2023-06-14T12:24:18;10;9;
60816;PMS5003;51921;51.518;-3.188;2023-06-14T12:26:43;10;10;
60816;PMS5003;51921;51.518;-3.188;2023-06-14T12:29:09;8;8;
60816;PMS5003;51921;51.518;-3.188;2023-06-14T12:31:34;8;8;
60816;PMS5003;51921;51.518;-3.188;2023-06-14T12:34:00;7;7;
60816;PMS5003;51921;51.518;-3.188;2023-06-14T12:36:25;10;9;
60816;PMS5003;51921;51.518;-3.188;2023-06-14T12:38:50;10;9;
60816;PMS5003;51921;51.518;-3.188;2023-06-14T12:41:16;9;9;
60816;PMS5003;51921;51.518;-3.188;2023-06-14T12:43:41;11;10;
60816;PMS5003;51921;51.518;-3.188;2023-06-14T12:46:06;8;7;
60816;PMS5003;51921;51.518;-3.188;2023-06-14T12:48:32;9;9;
60816;PMS5003;51921;51.518;-3.188;2023-06-14T12:50:57;9;9;
60816;PMS5003;51921;51.518;-3.188;2023-06-14T12:53:23;11;9;
60816;PMS5003;51921;51.518;-3.188;2023-06-14T12:55:48;10;10;
60816;PMS5003;51921;51.518;-3.188;2023-06-14T12:58:13;8;7;
60816;PMS5003;51921;51.518;-3.188;2023-06-14T13:00:38;10;10;
60816;PMS5003;51921;51.518;-3.188;2023-06-14T13:03:04;9;9;
60816;PMS5003;51921;51.518;-3.188;2023-06-14T13:05:29;12;11;
60816;PMS5003;51921;51.518;-3.188;2023-06-14T13:07:54;9;9;
60816;PMS5003;51921;51.518;-3.188;2023-06-14T13:10:19;10;10;
60816;PMS5003;51921;51.518;-3.188;2023-06-14T13:12:45;12;11;
60816;PMS5003;51921;51.518;-3.188;2023-06-14T13:15:10;8;8;
60816;PMS5003;51921;51.518;-3.188;2023-06-14T13:17:35;11;10;
60816;PMS5003;51921;51.518;-3.188;2023-06-14T13:20:01;10;10;
60816;PMS5003;51921;51.518;-3.188;2023-06-14T13:22:26;11;11;
60816;PMS5003;51921;51.518;-3.188;2023-06-14T13:24:51;10;10;
60816;PMS5003;51921;51.518;-3.188;2023-06-14T13:27:16;8;8;
60816;PMS5003;51921;51.518;-3.188;2023-06-14T13:29:42;10;9;
60816;PMS5003;51921;51.518;-3.188;2023-06-14T13:32:07;12;11;
60816;PMS5003;51921;51.518;-3.188;2023-06-14T13:34:32;12;11;
60816;PMS5003;51921;51.518;-3.188;2023-06-14T13:36:57;13;13;
60816;PMS5003;51921;51.518;-3.188;2023-06-14T13:39:24;11;10;
60816;PMS5003;51921;51.518;-3.188;2023-06-14T13:41:48;11;11;
60816;PMS5003;51921;51.518;-3.188;2023-06-14T13:44:13;13;11;
60816;PMS5003;51921;51.518;-3.188;2023-06-14T13:46:39;13;13;
60816;PMS5003;51921;51.518;-3.188;2023-06-14T13:49:04;14;13;
60816;PMS5003;51921;51.518;-3.188;2023-06-14T13:51:30;13;12;
60816;PMS5003;51921;51.518;-3.188;2023-06-14T13:53:56;15;15;
60816;PMS5003;51921;51.518;-3.188;2023-06-14T13:56:21;14;13;
60816;PMS5003;51921;51.518;-3.188;2023-06-14T13:58:47;12;12;
60816;PMS5003;51921;51.518;-3.188;2023-06-14T14:01:13;14;13;
60816;PMS5003;51921;51.518;-3.188;2023-06-14T14:03:38;14;13;
60816;PMS5003;51921;51.518;-3.188;2023-06-14T14:06:04;14;13;
60816;PMS5003;51921;51.518;-3.188;2023-06-14T14:08:29;16;16;
60816;PMS5003;51921;51.518;-3.188;2023-06-14T14:10:55;12;12;
60816;PMS5003;51921;51.518;-3.188;2023-06-14T14:13:20;16;15;
60816;PMS5003;51921;51.518;-3.188;2023-06-14T14:15:45;14;14;
60816;PMS5003;51921;51.518;-3.188;2023-06-14T14:18:11;13;13;
60816;PMS5003;51921;51.518;-3.188;2023-06-14T14:20:36;15;15;
60816;PMS5003;51921;51.518;-3.188;2023-06-14T14:23:02;17;17;
60816;PMS5003;51921;51.518;-3.188;2023-06-14T14:25:27;14;13;
60816;PMS5003;51921;51.518;-3.188;2023-06-14T14:27:53;12;12;
60816;PMS5003;51921;51.518;-3.188;2023-06-14T14:30:18;15;15;
60816;PMS5003;51921;51.518;-3.188;2023-06-14T14:32:44;13;13;
60816;PMS5003;51921;51.518;-3.188;2023-06-14T14:35:09;14;14;
60816;PMS5003;51921;51.518;-3.188;2023-06-14T14:37:35;14;14;
60816;PMS5003;51921;51.518;-3.188;2023-06-14T14:40:00;14;14;
60816;PMS5003;51921;51.518;-3.188;2023-06-14T14:42:26;14;14;
60816;PMS5003;51921;51.518;-3.188;2023-06-14T14:44:51;19;18;
60816;PMS5003;51921;51.518;-3.188;2023-06-14T14:47:17;17;17;
60816;PMS5003;51921;51.518;-3.188;2023-06-14T14:49:42;12;11;
60816;PMS5003;51921;51.518;-3.188;2023-06-14T14:52:08;14;13;
60816;PMS5003;51921;51.518;-3.188;2023-06-14T14:54:33;17;15;
60816;PMS5003;51921;51.518;-3.188;2023-06-14T14:56:59;15;14;
60816;PMS5003;51921;51.518;-3.188;2023-06-14T14:59:24;14;14;
60816;PMS5003;51921;51.518;-3.188;2023-06-14T15:01:49;14;13;
60816;PMS5003;51921;51.518;-3.188;2023-06-14T15:04:15;14;14;
60816;PMS5003;51921;51.518;-3.188;2023-06-14T15:06:40;12;12;
60816;PMS5003;51921;51.518;-3.188;2023-06-14T15:09:06;15;14;
60816;PMS5003;51921;51.518;-3.188;2023-06-14T15:11:31;15;13;
60816;PMS5003;51921;51.518;-3.188;2023-06-14T15:13:56;12;12;
60816;PMS5003;51921;51.518;-3.188;2023-06-14T15:16:22;13;13;
60816;PMS5003;51921;51.518;-3.188;2023-06-14T15:18:47;15;14;
60816;PMS5003;51921;51.518;-3.188;2023-06-14T15:21:12;13;13;
60816;PMS5003;51921;51.518;-3.188;2023-06-14T15:23:38;13;12;
60816;PMS5003;51921;51.518;-3.188;2023-06-14T15:26:03;16;14;
60816;PMS5003;51921;51.518;-3.188;2023-06-14T15:28:28;14;14;
60816;PMS5003;51921;51.518;-3.188;2023-06-14T15:30:54;17;15;
60816;PMS5003;51921;51.518;-3.188;2023-06-14T15:33:19;15;14;
60816;PMS5003;51921;51.518;-3.188;2023-06-14T15:35:45;19;19;
60816;PMS5003;51921;51.518;-3.188;2023-06-14T15:38:10;17;17;
60816;PMS5003;51921;51.518;-3.188;2023-06-14T15:40:35;12;12;
60816;PMS5003;51921;51.518;-3.188;2023-06-14T15:43:01;14;12;
60816;PMS5003;51921;51.518;-3.188;2023-06-14T15:45:26;13;12;
60816;PMS5003;51921;51.518;-3.188;2023-06-14T15:47:51;15;15;
60816;PMS5003;51921;51.518;-3.188;2023-06-14T15:50:17;15;14;
60816;PMS5003;51921;51.518;-3.188;2023-06-14T15:52:42;14;14;
60816;PMS5003;51921;51.518;-3.188;2023-06-14T15:55:07;16;16;
60816;PMS5003;51921;51.518;-3.188;2023-06-14T15:57:33;19;17;
60816;PMS5003;51921;51.518;-3.188;2023-06-14T15:59:58;16;16;
60816;PMS5003;51921;51.518;-3.188;2023-06-14T16:02:23;15;15;
60816;PMS5003;51921;51.518;-3.188;2023-06-14T16:04:49;15;14;
60816;PMS5003;51921;51.518;-3.188;2023-06-14T16:07:15;17;15;